aviador You're here:

KAPC Decoded Metar

NAPA in CA, USA
Report Time2017-07-23 05:54:00
UTC Time2017-07-23 06:51:32
Flight Rules vfr VFR
Wind210° at 04 kt
W.Decomp.*RWY 18: 3.9 kt HW 1.0 kt RCW
RWY 24: 2.8 kt HW 2.8 kt LCW
W.Rank210° ranks 2
Current wind is below 210° avg. (8.1)
Visibility9999 m
Phenomena:N/A
Clouds:N/A
Expected CloudBase > 2,400 ft AGL from Temp-Dew spread
CeilingNone
Temp20°C (ISA +5)
Dew Point14°C (69% RH)
AAT19.9°C
QNH1010 hPa
Density Alt951 ft
Elevation43 ft
Report Wrong Elevation
Raw Report
KAPC 230554Z AUTO 21004KT 10SM CLR 20/14 A2984 RMK AO2 SLP096
T02000139 10306 20194 51010=

Extra information for KAPC:More info

Metar Taf Metar & Taf Last 4 Metars F.Rules Stats Wind Profile Meteogram Temp Stats Airport Information Weather charts Add Link Nearby VenuesMetar ALERT Operation Metar Decoded Social comments

AIRNAV info for KAPC